Kezdőlap
METAR-TAF:

METAR-TAF

Repülőterek :

Angoulême, Franciaország

földrajzi szélesség: 45-43-46N, földrajzi hosszúság: 00-13-08E, magasság: 132 m

Jelenlegi meteorológiai megfigyelések

A jelentés 34 perccel ezelõtt készült, 14:30 UTC
Déli szél 5 kt
Hőmérséklet 13°C
Páratartalom 82%
Légköri nyomás 1008 hPa
Látótávolság 10 km, vagy több
Szakadozott felhőzet 4400 lábon
Borult 5400 lábon

METAR: LFBU 151430Z AUTO 18005KT 9999 BKN044 OVC054 13/10 Q1008 NOSIG

Idő: 16:04 (15:04 UTC)

Előrejelzés

A jelentés 4 órával és 4 perccel ezelõtt készült, 11:00 UTC
Az előrejelzés 15-én 12 óra UTC és 16-én 12 óra UTC között érvényes
Déli szél 8 kt
Látótávolság 10 km, vagy több
Szakadozott felhőzet 4000 lábon
15-én 12 óra UTC és 16-én 06 óra UTC között ideiglenes
enyhe esõ
16-én 08 óra UTC és 16-én 12 óra UTC között ideiglenes
Délkeleti szél 10 kt széllökések: 25 kt

TAF: LFBU 151100Z 1512/1612 18008KT 9999 BKN040 TEMPO 1512/1606 -RA TEMPO 1608/1612 14010G25KT

Meteorológiai megfigyelések és előrejelzések több, mint 4000 repülőtéren (METAR és TAF jelentéseket).

A térképen piros és sárga pontok jelzik az elérhető meteorológiai állomásokat.

Mozgassa az egeret a pont fölött, hogy megjelenjen az állomás neve.

Azután kattintson az időjárási megfigyelések és előrejelzések megtekintéséhez.

A térkép megváltoztatása: kattintson a fekete keresztel jelölt zöld gombra ráközelítéshez, a vonallal jelölt zöld gombra távolításhoz, vagy a zöld nyilakra a szomszédos térképek eléréséhez.


METAR-TAF: